Balaton, Minnesota
Current Conditions -  °F | °C
As of 6:53 AM on Monday 20 Oct 2014 (Local Time) from KTKC Reporting Station
Clear Clear  
Wind Chill: 43°   Ceiling: Unl
Heat Index: 46°   Visibility: 10mi
Dew Point: 38°   Wind: 6mph
Humidity: 74%   Direction: 270°W
Pressure: 30.03"   Gusts: NA
Location:  44.23°N, 95.87°W
Report Text: KTKC 201153Z AUTO 27005KT 10SM CLR 08/04 A3003 RMK AO2 T00790035 10103 20075
Loading
Personal Weather Stations






























Interactive Weather Map
Tropical Storm Tracking
New forecast layout! Learn more

10-Day Weather Forecast

Advertisements
Track Severe Weather on mobile